Time;durP1;ratioP1;P1;durP2;ratioP2;P2;SDS_P1;SDS_P2;PMS_P1;PMS_P2;Temp;Humidity;BMP_temperature;BMP_pressure;BME280_temperature;BME280_humidity;BME280_pressure;Samples;Min_cycle;Max_cycle;Signal;HPM_P1;HPM_P2
2024/04/07 05:04:07;;;;;;;6.57;3.97;;;;;;;;;;4992327;28;20565;-76
2024/04/07 05:06:33;;;;;;;8.30;4.80;;;;;;;;;;4993660;28;20801;-76
2024/04/07 05:08:59;;;;;;;14.43;4.63;;;;;;;;;;4993903;28;20403;-76
2024/04/07 05:11:25;;;;;;;8.43;4.23;;;;;;;;;;5004163;28;20996;-76
2024/04/07 05:13:51;;;;;;;11.77;4.70;;;;;;;;;;5013321;28;20511;-76
2024/04/07 05:16:18;;;;;;;9.07;4.60;;;;;;;;;;5030865;23;20931;-74
2024/04/07 05:18:43;;;;;;;10.33;5.40;;;;;;;;;;5013394;28;20553;-75
2024/04/07 05:21:10;;;;;;;8.43;4.93;;;;;;;;;;5013222;28;20493;-73
2024/04/07 05:23:36;;;;;;;7.10;3.93;;;;;;;;;;5009200;28;20415;-74
2024/04/07 05:26:09;;;;;;;9.17;4.93;;;;;;;;;;4991723;28;20911;-74
2024/04/07 05:28:35;;;;;;;12.70;4.80;;;;;;;;;;5010048;28;20489;-73
2024/04/07 05:31:04;;;;;;;6.83;4.50;;;;;;;;;;5013211;28;21056;-74
2024/04/07 05:33:33;;;;;;;9.90;5.37;;;;;;;;;;5012769;28;20417;-74
2024/04/07 05:35:59;;;;;;;9.03;5.17;;;;;;;;;;5012652;28;20441;-75
2024/04/07 05:38:25;;;;;;;7.07;4.93;;;;;;;;;;5012909;28;20516;-75
2024/04/07 05:40:55;;;;;;;5.90;4.27;;;;;;;;;;5013036;28;20410;-75
2024/04/07 05:43:21;;;;;;;5.70;4.17;;;;;;;;;;5011959;28;20415;-74
2024/04/07 05:45:47;;;;;;;6.10;4.97;;;;;;;;;;4992975;28;20485;-74
2024/04/07 05:48:13;;;;;;;8.90;5.40;;;;;;;;;;4993333;28;20917;-74
2024/04/07 05:50:39;;;;;;;9.30;4.60;;;;;;;;;;4993185;28;20752;-74
2024/04/07 05:53:05;;;;;;;8.30;4.90;;;;;;;;;;4993211;28;20415;-74
2024/04/07 05:55:33;;;;;;;9.90;4.73;;;;;;;;;;5009872;28;20503;-73
2024/04/07 05:57:59;;;;;;;12.10;5.40;;;;;;;;;;5012720;28;20458;-75
2024/04/07 06:00:25;;;;;;;7.70;4.87;;;;;;;;;;5012577;28;20413;-73
2024/04/07 06:02:51;;;;;;;12.50;6.00;;;;;;;;;;5012712;28;20406;-74
2024/04/07 06:05:17;;;;;;;9.13;5.20;;;;;;;;;;5011949;28;20438;-74
2024/04/07 06:07:43;;;;;;;9.60;5.27;;;;;;;;;;5012542;28;20444;-73
2024/04/07 06:10:09;;;;;;;9.00;5.10;;;;;;;;;;5012451;28;20928;-73
2024/04/07 06:12:36;;;;;;;10.50;5.00;;;;;;;;;;5010825;28;20489;-73
2024/04/07 06:15:02;;;;;;;11.10;6.00;;;;;;;;;;5011844;28;20445;-75
2024/04/07 06:17:28;;;;;;;7.83;5.70;;;;;;;;;;5012281;28;20816;-75
2024/04/07 06:19:54;;;;;;;11.03;5.10;;;;;;;;;;5011952;28;20420;-74
2024/04/07 06:22:20;;;;;;;9.40;5.57;;;;;;;;;;5012321;28;20441;-74
2024/04/07 06:24:47;;;;;;;9.23;5.03;;;;;;;;;;5012001;28;20426;-74
2024/04/07 06:27:13;;;;;;;14.83;5.60;;;;;;;;;;4995490;28;20451;-75
2024/04/07 06:29:39;;;;;;;10.63;5.97;;;;;;;;;;4996372;28;20449;-74
2024/04/07 06:32:05;;;;;;;15.60;5.80;;;;;;;;;;4992537;28;20403;-74
2024/04/07 06:34:31;;;;;;;16.47;6.30;;;;;;;;;;4990732;28;20418;-74
2024/04/07 06:36:57;;;;;;;11.67;5.43;;;;;;;;;;4992187;28;20411;-75
2024/04/07 06:39:23;;;;;;;8.67;5.20;;;;;;;;;;5001065;28;20635;-73
2024/04/07 06:41:49;;;;;;;11.00;5.83;;;;;;;;;;5012284;28;20414;-75
2024/04/07 06:44:15;;;;;;;7.27;5.20;;;;;;;;;;5009463;28;20753;-74
2024/04/07 06:46:41;;;;;;;6.60;5.20;;;;;;;;;;4992291;28;20466;-73
2024/04/07 06:49:07;;;;;;;9.57;5.73;;;;;;;;;;4995928;28;20422;-73
2024/04/07 06:51:33;;;;;;;12.03;6.03;;;;;;;;;;5010668;28;20425;-73
2024/04/07 06:53:59;;;;;;;9.30;5.40;;;;;;;;;;5011900;28;20412;-74
2024/04/07 06:56:25;;;;;;;9.90;5.13;;;;;;;;;;5011688;28;20472;-74
2024/04/07 06:58:51;;;;;;;8.13;5.30;;;;;;;;;;5011205;28;20572;-74
2024/04/07 07:01:17;;;;;;;8.40;4.77;;;;;;;;;;5011425;28;20923;-74
2024/04/07 07:03:43;;;;;;;10.30;5.43;;;;;;;;;;5011784;28;20402;-74
2024/04/07 07:06:13;;;;;;;7.13;4.83;;;;;;;;;;5011380;28;20444;-74
2024/04/07 07:08:39;;;;;;;8.40;4.70;;;;;;;;;;5010038;28;20441;-73
2024/04/07 07:11:07;;;;;;;14.17;5.63;;;;;;;;;;5011490;28;20449;-74
2024/04/07 07:13:36;;;;;;;11.87;5.57;;;;;;;;;;5011803;28;20481;-75
2024/04/07 07:16:02;;;;;;;8.50;5.50;;;;;;;;;;5011354;28;20450;-75
2024/04/07 07:18:27;;;;;;;8.83;6.10;;;;;;;;;;5011663;28;20469;-75
2024/04/07 07:20:53;;;;;;;10.80;5.50;;;;;;;;;;4993111;28;20502;-75
2024/04/07 07:23:19;;;;;;;8.80;4.63;;;;;;;;;;4992148;28;20402;-75
2024/04/07 07:25:45;;;;;;;9.07;5.30;;;;;;;;;;4991678;28;20427;-75
2024/04/07 07:28:11;;;;;;;8.90;5.27;;;;;;;;;;5004020;28;20451;-75
2024/04/07 07:30:37;;;;;;;18.27;6.63;;;;;;;;;;5011592;28;20425;-75
2024/04/07 07:33:03;;;;;;;16.00;6.10;;;;;;;;;;5010273;28;20426;-76
2024/04/07 07:35:29;;;;;;;11.63;4.87;;;;;;;;;;5008844;28;20447;-76
2024/04/07 07:37:55;;;;;;;8.77;5.90;;;;;;;;;;4991992;28;20458;-75
2024/04/07 07:40:22;;;;;;;7.17;4.50;;;;;;;;;;4991890;28;20411;-76
2024/04/07 07:42:47;;;;;;;10.70;6.00;;;;;;;;;;4990705;28;20421;-76
2024/04/07 07:45:16;;;;;;;10.00;5.70;;;;;;;;;;4992446;28;20431;-76
2024/04/07 07:47:42;;;;;;;8.77;5.57;;;;;;;;;;5012167;28;20414;-75
2024/04/07 07:50:08;;;;;;;8.20;5.73;;;;;;;;;;5001299;28;20422;-75
2024/04/07 07:52:34;;;;;;;12.90;5.87;;;;;;;;;;4995351;28;20850;-75
2024/04/07 07:55:00;;;;;;;14.03;6.53;;;;;;;;;;4994910;28;20426;-75
2024/04/07 07:57:26;;;;;;;10.43;6.83;;;;;;;;;;5013988;28;20864;-75
2024/04/07 07:59:53;;;;;;;9.43;6.90;;;;;;;;;;5003834;28;20775;-76
2024/04/07 08:02:19;;;;;;;11.10;6.40;;;;;;;;;;4995187;28;20469;-75
2024/04/07 08:04:45;;;;;;;15.10;7.20;;;;;;;;;;4994780;28;20434;-75
2024/04/07 08:07:11;;;;;;;10.73;5.83;;;;;;;;;;5011437;28;20413;-74
2024/04/07 08:09:37;;;;;;;12.70;6.00;;;;;;;;;;5015123;28;20827;-74
2024/04/07 08:12:03;;;;;;;9.20;5.60;;;;;;;;;;5014709;28;20418;-75
2024/04/07 08:14:29;;;;;;;8.37;5.70;;;;;;;;;;5008691;28;20453;-75
2024/04/07 08:16:55;;;;;;;17.30;5.73;;;;;;;;;;4998975;28;20475;-75
2024/04/07 08:19:20;;;;;;;10.27;5.47;;;;;;;;;;5008694;28;20481;-74
2024/04/07 08:21:46;;;;;;;11.07;5.30;;;;;;;;;;5013060;28;20483;-75
2024/04/07 08:24:12;;;;;;;10.00;5.63;;;;;;;;;;5012940;28;20422;-75
2024/04/07 08:26:38;;;;;;;9.93;4.73;;;;;;;;;;5013807;28;20469;-75
2024/04/07 08:29:05;;;;;;;8.50;4.93;;;;;;;;;;5014250;28;20914;-74
2024/04/07 08:31:30;;;;;;;11.60;5.70;;;;;;;;;;5014512;28;20422;-74
2024/04/07 08:33:56;;;;;;;12.50;5.47;;;;;;;;;;5014434;28;20476;-74
2024/04/07 08:36:22;;;;;;;11.80;4.37;;;;;;;;;;5016393;28;20446;-74
2024/04/07 08:38:48;;;;;;;13.83;4.80;;;;;;;;;;4997090;28;20560;-76
2024/04/07 08:41:14;;;;;;;9.40;4.50;;;;;;;;;;4996325;28;20412;-76
2024/04/07 08:43:41;;;;;;;9.97;4.57;;;;;;;;;;4994136;28;20498;-75
2024/04/07 08:46:16;;;;;;;8.80;4.00;;;;;;;;;;4995585;28;20431;-76
2024/04/07 08:48:45;;;;;;;7.70;3.77;;;;;;;;;;5013765;28;20402;-77
2024/04/07 08:51:11;;;;;;;9.90;3.73;;;;;;;;;;5011772;28;20438;-74
2024/04/07 08:53:41;;;;;;;8.40;3.00;;;;;;;;;;5013840;28;20441;-76
2024/04/07 08:56:07;;;;;;;8.60;2.27;;;;;;;;;;5013546;28;20778;-76
2024/04/07 08:58:34;;;;;;;7.43;3.20;;;;;;;;;;5013676;28;20469;-75
2024/04/07 09:01:01;;;;;;;6.43;2.50;;;;;;;;;;5013703;28;20472;-75
2024/04/07 09:03:28;;;;;;;5.70;2.47;;;;;;;;;;5013622;28;20410;-75
2024/04/07 09:05:54;;;;;;;9.43;2.90;;;;;;;;;;5013169;28;20457;-77
2024/04/07 09:08:20;;;;;;;9.87;2.73;;;;;;;;;;5013578;28;20464;-76
2024/04/07 09:10:46;;;;;;;6.60;2.20;;;;;;;;;;5013461;28;20508;-74
2024/04/07 09:13:12;;;;;;;14.30;2.80;;;;;;;;;;5013624;28;20414;-75
2024/04/07 09:15:38;;;;;;;13.70;2.80;;;;;;;;;;5013157;28;20486;-75
2024/04/07 09:18:05;;;;;;;16.37;3.10;;;;;;;;;;4996972;28;20517;-75
2024/04/07 09:20:32;;;;;;;11.60;3.30;;;;;;;;;;4993810;28;20415;-75
2024/04/07 09:22:58;;;;;;;8.40;2.50;;;;;;;;;;4993803;28;20911;-75
2024/04/07 09:25:24;;;;;;;9.33;2.37;;;;;;;;;;4993381;28;20439;-74
2024/04/07 09:27:50;;;;;;;12.03;2.87;;;;;;;;;;5007344;28;20429;-74
2024/04/07 09:30:16;;;;;;;8.70;2.50;;;;;;;;;;5012888;28;20433;-75
2024/04/07 09:32:42;;;;;;;14.33;2.77;;;;;;;;;;5013599;28;20481;-79
2024/04/07 09:35:08;;;;;;;10.93;3.67;;;;;;;;;;5013073;28;20434;-77
2024/04/07 09:37:38;;;;;;;5.17;2.30;;;;;;;;;;5012620;28;21003;-77
2024/04/07 09:40:04;;;;;;;9.10;3.23;;;;;;;;;;5014806;28;20421;-79
2024/04/07 09:42:31;;;;;;;9.13;3.00;;;;;;;;;;5014437;28;20929;-78
2024/04/07 09:44:59;;;;;;;7.20;2.60;;;;;;;;;;5011539;28;20487;-78
2024/04/07 09:47:30;;;;;;;3.67;2.10;;;;;;;;;;5012836;28;20419;-79
2024/04/07 09:49:58;;;;;;;9.23;2.70;;;;;;;;;;5004211;28;20422;-79
2024/04/07 09:52:28;;;;;;;9.53;3.07;;;;;;;;;;5015489;28;20541;-75
2024/04/07 09:54:56;;;;;;;14.60;2.27;;;;;;;;;;5012461;28;20808;-74
2024/04/07 09:57:22;;;;;;;10.60;2.60;;;;;;;;;;5010722;28;20414;-76
2024/04/07 09:59:48;;;;;;;8.10;3.80;;;;;;;;;;4994820;28;20850;-76
2024/04/07 10:02:14;;;;;;;15.83;2.50;;;;;;;;;;4993021;28;20410;-77
2024/04/07 10:04:41;;;;;;;11.43;3.33;;;;;;;;;;4993465;28;20403;-77
2024/04/07 10:07:08;;;;;;;6.00;2.40;;;;;;;;;;5003649;28;20407;-77
2024/04/07 10:09:35;;;;;;;16.43;3.20;;;;;;;;;;4993251;28;20788;-79
2024/04/07 10:12:01;;;;;;;7.70;3.17;;;;;;;;;;5013008;28;20418;-77
2024/04/07 10:14:36;;;;;;;8.30;2.90;;;;;;;;;;4992272;28;20494;-78
2024/04/07 10:17:02;;;;;;;12.30;2.87;;;;;;;;;;4994555;28;20906;-77
2024/04/07 10:19:28;;;;;;;9.80;2.73;;;;;;;;;;5006230;28;20870;-77
2024/04/07 10:21:57;;;;;;;11.30;3.67;;;;;;;;;;5014109;28;20418;-78
2024/04/07 10:24:24;;;;;;;8.50;2.30;;;;;;;;;;5013174;28;20425;-76
2024/04/07 10:26:56;;;;;;;8.27;2.57;;;;;;;;;;5010507;28;20460;-76
2024/04/07 10:29:26;;;;;;;5.87;2.50;;;;;;;;;;5012014;28;20958;-77
2024/04/07 10:31:52;;;;;;;9.63;2.57;;;;;;;;;;5000948;28;20491;-79
2024/04/07 10:34:18;;;;;;;11.87;2.70;;;;;;;;;;5004215;28;20460;-78
2024/04/07 10:36:53;;;;;;;12.20;2.77;;;;;;;;;;5004559;28;20447;-77
2024/04/07 10:39:29;;;;;;;14.43;2.67;;;;;;;;;;5020418;28;20451;-78
2024/04/07 10:41:55;;;;;;;7.30;2.20;;;;;;;;;;5033158;28;20433;-78
2024/04/07 10:44:21;;;;;;;5.10;2.40;;;;;;;;;;5026271;28;20436;-77
2024/04/07 10:46:47;;;;;;;8.60;2.60;;;;;;;;;;5031646;28;20426;-78
2024/04/07 10:49:13;;;;;;;16.40;2.77;;;;;;;;;;5033784;28;20414;-76
2024/04/07 10:51:39;;;;;;;13.43;2.70;;;;;;;;;;5014310;28;20477;-74
2024/04/07 10:54:06;;;;;;;6.00;2.73;;;;;;;;;;5017267;28;20477;-74
2024/04/07 10:56:32;;;;;;;9.73;3.37;;;;;;;;;;5031376;28;20450;-81
2024/04/07 10:58:59;;;;;;;8.50;2.87;;;;;;;;;;5028686;28;20513;-80
2024/04/07 11:01:25;;;;;;;11.40;2.40;;;;;;;;;;5028621;28;20414;-81
2024/04/07 11:03:53;;;;;;;8.00;2.07;;;;;;;;;;5027633;28;20412;-78
2024/04/07 11:06:23;;;;;;;12.00;3.30;;;;;;;;;;5013820;28;20971;-80
2024/04/07 11:08:49;;;;;;;10.67;2.80;;;;;;;;;;4993717;28;20492;-77
2024/04/07 11:11:15;;;;;;;11.83;2.80;;;;;;;;;;4996004;28;20433;-77
2024/04/07 11:13:42;;;;;;;7.40;2.23;;;;;;;;;;4993383;28;20969;-81
2024/04/07 11:16:11;;;;;;;8.90;3.00;;;;;;;;;;5039213;23;20492;-72
2024/04/07 11:18:38;;;;;;;7.80;2.63;;;;;;;;;;5031286;28;20602;-73
2024/04/07 11:21:07;;;;;;;9.40;2.93;;;;;;;;;;5031012;28;20412;-71
2024/04/07 11:23:33;;;;;;;10.33;3.10;;;;;;;;;;5032937;28;20421;-72
2024/04/07 11:25:59;;;;;;;3.90;2.37;;;;;;;;;;5033107;28;20441;-71
2024/04/07 11:28:25;;;;;;;7.90;2.87;;;;;;;;;;5022489;28;20421;-71
2024/04/07 11:30:55;;;;;;;6.73;2.47;;;;;;;;;;5034540;28;20483;-74
2024/04/07 11:33:21;;;;;;;17.00;3.80;;;;;;;;;;5024997;28;20416;-73
2024/04/07 11:35:47;;;;;;;9.00;2.30;;;;;;;;;;5044091;28;20927;-74
2024/04/07 11:38:13;;;;;;;12.83;3.17;;;;;;;;;;5048476;28;20579;-75
2024/04/07 11:40:40;;;;;;;12.43;2.80;;;;;;;;;;5040036;28;20434;-74
2024/04/07 11:43:07;;;;;;;10.53;4.60;;;;;;;;;;5043355;28;20413;-75
2024/04/07 11:45:33;;;;;;;9.73;3.30;;;;;;;;;;5052135;28;20468;-74
2024/04/07 11:47:59;;;;;;;14.43;2.50;;;;;;;;;;5041911;28;20447;-74
2024/04/07 11:50:25;;;;;;;7.97;2.97;;;;;;;;;;5030558;28;20410;-74
2024/04/07 11:52:51;;;;;;;13.90;3.47;;;;;;;;;;5033005;28;20437;-74
2024/04/07 11:55:17;;;;;;;7.80;3.30;;;;;;;;;;5018353;28;20796;-74
2024/04/07 11:57:43;;;;;;;16.53;3.20;;;;;;;;;;5015460;28;20592;-74
2024/04/07 12:00:09;;;;;;;13.57;2.87;;;;;;;;;;5015357;28;20922;-74
2024/04/07 12:02:35;;;;;;;9.53;2.87;;;;;;;;;;5015878;28;20414;-74
2024/04/07 12:05:05;;;;;;;9.13;2.80;;;;;;;;;;5015721;28;20448;-75
2024/04/07 12:07:31;;;;;;;19.90;3.53;;;;;;;;;;5015082;28;20399;-75
2024/04/07 12:09:58;;;;;;;6.80;3.07;;;;;;;;;;5014221;28;20705;-73
2024/04/07 12:12:24;;;;;;;9.50;2.67;;;;;;;;;;5013102;28;20572;-74
2024/04/07 12:14:50;;;;;;;10.43;2.90;;;;;;;;;;5014170;28;20418;-74
2024/04/07 12:17:17;;;;;;;9.63;3.20;;;;;;;;;;5014272;28;20406;-74
2024/04/07 12:19:43;;;;;;;8.50;2.90;;;;;;;;;;5013022;28;20446;-75
2024/04/07 12:22:14;;;;;;;14.40;3.07;;;;;;;;;;5018591;28;20487;-75
2024/04/07 12:24:40;;;;;;;10.97;3.10;;;;;;;;;;5038326;28;20504;-74
2024/04/07 12:27:06;;;;;;;6.77;3.43;;;;;;;;;;5034204;28;20897;-74
2024/04/07 12:29:32;;;;;;;7.60;2.90;;;;;;;;;;5033777;28;20419;-75
2024/04/07 12:31:58;;;;;;;5.33;2.90;;;;;;;;;;5033738;28;20449;-75
2024/04/07 12:34:24;;;;;;;12.20;2.90;;;;;;;;;;5033443;28;20419;-73
2024/04/07 12:36:50;;;;;;;11.87;2.87;;;;;;;;;;5033841;28;20900;-73
2024/04/07 12:39:16;;;;;;;10.70;2.97;;;;;;;;;;5033715;28;20464;-73
2024/04/07 12:41:44;;;;;;;12.87;3.30;;;;;;;;;;5033761;28;20452;-74
2024/04/07 12:44:10;;;;;;;13.33;3.50;;;;;;;;;;5033479;28;20482;-74
2024/04/07 12:46:36;;;;;;;13.33;3.33;;;;;;;;;;5033429;28;20924;-75
2024/04/07 12:49:02;;;;;;;14.77;4.80;;;;;;;;;;5034571;28;20548;-75
2024/04/07 12:51:28;;;;;;;7.60;2.67;;;;;;;;;;5032685;28;20409;-75
2024/04/07 12:53:54;;;;;;;18.90;4.23;;;;;;;;;;5033318;28;20440;-74
2024/04/07 12:56:20;;;;;;;14.37;3.97;;;;;;;;;;5033222;28;21019;-74
2024/04/07 12:58:46;;;;;;;13.77;2.93;;;;;;;;;;5032078;28;21042;-75
2024/04/07 13:01:12;;;;;;;12.83;3.80;;;;;;;;;;5032494;28;20916;-75
2024/04/07 13:03:38;;;;;;;19.70;3.90;;;;;;;;;;5031931;28;20424;-75
2024/04/07 13:06:05;;;;;;;14.97;3.70;;;;;;;;;;5031564;28;20765;-75
2024/04/07 13:08:34;;;;;;;5.03;2.80;;;;;;;;;;5033073;28;20409;-74
2024/04/07 13:11:01;;;;;;;7.73;2.97;;;;;;;;;;5032906;28;20417;-74
2024/04/07 13:13:27;;;;;;;8.57;3.50;;;;;;;;;;5032715;28;20437;-75
2024/04/07 13:15:55;;;;;;;20.50;3.23;;;;;;;;;;5031853;28;20459;-74
2024/04/07 13:18:27;;;;;;;12.57;3.50;;;;;;;;;;5021373;28;20552;-73
2024/04/07 13:20:53;;;;;;;11.20;3.30;;;;;;;;;;5013052;28;20901;-74
2024/04/07 13:23:19;;;;;;;9.27;2.93;;;;;;;;;;5012899;28;20932;-74
2024/04/07 13:25:45;;;;;;;9.27;2.80;;;;;;;;;;5012633;28;20450;-74
2024/04/07 13:28:11;;;;;;;16.30;3.60;;;;;;;;;;5012823;28;20414;-74
2024/04/07 13:30:37;;;;;;;8.00;3.33;;;;;;;;;;5012801;28;20911;-74
2024/04/07 13:33:03;;;;;;;7.13;3.03;;;;;;;;;;5012774;28;20766;-73
2024/04/07 13:35:29;;;;;;;6.47;2.77;;;;;;;;;;5012603;28;20798;-73
2024/04/07 13:37:56;;;;;;;8.57;3.10;;;;;;;;;;5012997;28;20487;-74
2024/04/07 13:40:22;;;;;;;14.40;3.53;;;;;;;;;;5012832;28;20912;-73
2024/04/07 13:42:48;;;;;;;11.10;3.50;;;;;;;;;;5012513;28;20410;-73
2024/04/07 13:45:14;;;;;;;7.40;2.90;;;;;;;;;;5012261;28;20433;-73
2024/04/07 13:47:41;;;;;;;12.70;3.03;;;;;;;;;;5033691;28;20580;-73
2024/04/07 13:50:07;;;;;;;11.70;3.20;;;;;;;;;;5032701;28;20409;-74
2024/04/07 13:52:34;;;;;;;7.10;2.87;;;;;;;;;;5032096;28;20523;-74
2024/04/07 13:55:00;;;;;;;19.90;4.10;;;;;;;;;;5031753;28;20412;-73
2024/04/07 13:57:26;;;;;;;15.57;4.33;;;;;;;;;;5032998;28;20440;-75
2024/04/07 13:59:52;;;;;;;7.13;3.00;;;;;;;;;;5032197;28;20425;-75
2024/04/07 14:02:18;;;;;;;11.03;2.87;;;;;;;;;;5029421;28;20443;-75
2024/04/07 14:04:44;;;;;;;20.00;3.77;;;;;;;;;;5032203;28;20412;-74
2024/04/07 14:07:10;;;;;;;9.20;3.07;;;;;;;;;;5031476;28;20417;-74
2024/04/07 14:09:36;;;;;;;13.07;3.50;;;;;;;;;;5031628;28;20497;-74
2024/04/07 14:12:02;;;;;;;14.20;4.23;;;;;;;;;;5031696;28;20417;-73
2024/04/07 14:14:30;;;;;;;12.90;3.90;;;;;;;;;;5031833;28;20420;-73
2024/04/07 14:16:56;;;;;;;19.70;3.73;;;;;;;;;;5032155;28;20491;-75
2024/04/07 14:19:22;;;;;;;13.73;4.00;;;;;;;;;;5032265;28;20461;-75
2024/04/07 14:21:48;;;;;;;17.17;3.30;;;;;;;;;;5013151;28;20491;-75
2024/04/07 14:24:14;;;;;;;13.90;3.93;;;;;;;;;;5011854;28;20497;-75
2024/04/07 14:26:40;;;;;;;18.77;3.83;;;;;;;;;;5010305;28;20542;-75
2024/04/07 14:29:06;;;;;;;13.13;3.30;;;;;;;;;;5017400;28;20852;-74
2024/04/07 14:31:32;;;;;;;11.23;3.30;;;;;;;;;;5031232;28;20409;-75
2024/04/07 14:33:58;;;;;;;18.97;3.37;;;;;;;;;;5031400;28;20469;-74
2024/04/07 14:36:24;;;;;;;15.23;3.87;;;;;;;;;;5031317;28;20899;-74
2024/04/07 14:38:50;;;;;;;12.90;3.77;;;;;;;;;;5031405;28;20468;-74
2024/04/07 14:41:17;;;;;;;18.33;3.97;;;;;;;;;;5031592;28;20401;-74
2024/04/07 14:43:43;;;;;;;13.57;3.80;;;;;;;;;;5031481;28;20868;-74
2024/04/07 14:46:09;;;;;;;9.57;3.67;;;;;;;;;;5031130;28;20520;-74
2024/04/07 14:48:35;;;;;;;14.13;3.60;;;;;;;;;;5031638;28;20412;-74
2024/04/07 14:51:02;;;;;;;27.40;4.10;;;;;;;;;;5031408;28;20409;-73
2024/04/07 14:53:28;;;;;;;11.03;3.53;;;;;;;;;;5043408;28;20405;-73
2024/04/07 14:56:00;;;;;;;21.57;3.63;;;;;;;;;;5044915;28;20435;-73
2024/04/07 14:58:27;;;;;;;16.10;3.67;;;;;;;;;;5020824;28;20461;-75
2024/04/07 15:00:53;;;;;;;7.30;3.10;;;;;;;;;;5016448;28;20433;-74
2024/04/07 15:03:19;;;;;;;16.90;3.93;;;;;;;;;;5030589;28;20432;-74
2024/04/07 15:05:46;;;;;;;17.50;6.60;;;;;;;;;;5035123;28;20507;-74
2024/04/07 15:08:12;;;;;;;13.20;4.10;;;;;;;;;;5035850;28;20425;-74
2024/04/07 15:10:55;;;;;;;11.70;4.23;;;;;;;;;;5035414;28;20417;-74
2024/04/07 15:13:21;;;;;;;16.20;5.53;;;;;;;;;;5035452;28;20409;-74
2024/04/07 15:15:47;;;;;;;15.57;3.33;;;;;;;;;;5035098;28;20533;-74
2024/04/07 15:18:13;;;;;;;13.10;3.43;;;;;;;;;;5035662;28;20555;-74
2024/04/07 15:20:39;;;;;;;11.03;3.17;;;;;;;;;;5038219;28;20471;-75
2024/04/07 15:23:05;;;;;;;18.77;3.90;;;;;;;;;;5043655;28;20413;-74
2024/04/07 15:25:31;;;;;;;17.13;3.77;;;;;;;;;;5040344;28;20523;-74
2024/04/07 15:27:57;;;;;;;11.83;3.90;;;;;;;;;;5036032;28;20413;-74
2024/04/07 15:30:23;;;;;;;9.00;3.40;;;;;;;;;;5035836;28;20455;-74
2024/04/07 15:32:49;;;;;;;17.03;3.60;;;;;;;;;;5035491;28;20773;-74
2024/04/07 15:35:15;;;;;;;14.97;3.47;;;;;;;;;;5034768;28;20551;-75
2024/04/07 15:37:41;;;;;;;23.50;3.67;;;;;;;;;;5035040;28;20500;-74
2024/04/07 15:40:07;;;;;;;16.73;3.63;;;;;;;;;;5035063;28;20413;-73
2024/04/07 15:42:33;;;;;;;15.20;3.77;;;;;;;;;;5035010;28;20401;-74
2024/04/07 15:44:59;;;;;;;24.83;4.17;;;;;;;;;;5034870;28;20401;-74
2024/04/07 15:47:25;;;;;;;11.10;3.27;;;;;;;;;;5033472;28;20401;-73
2024/04/07 15:49:51;;;;;;;19.27;3.80;;;;;;;;;;5034783;28;20431;-75
2024/04/07 15:52:17;;;;;;;17.30;3.30;;;;;;;;;;5034735;28;20451;-74
2024/04/07 15:54:43;;;;;;;13.37;3.30;;;;;;;;;;5034851;28;20614;-75
2024/04/07 15:57:09;;;;;;;13.80;4.40;;;;;;;;;;5041385;28;20409;-75
2024/04/07 15:59:35;;;;;;;20.03;4.20;;;;;;;;;;5029137;28;20926;-74
2024/04/07 16:02:01;;;;;;;10.33;4.20;;;;;;;;;;5015450;28;20737;-74
2024/04/07 16:04:27;;;;;;;12.50;3.37;;;;;;;;;;5015263;28;20409;-74
2024/04/07 16:06:53;;;;;;;10.37;3.50;;;;;;;;;;5014814;28;20464;-74
2024/04/07 16:09:19;;;;;;;11.30;4.97;;;;;;;;;;5014421;28;20410;-74
2024/04/07 16:11:45;;;;;;;8.77;3.40;;;;;;;;;;5015036;28;20463;-74
2024/04/07 16:14:11;;;;;;;11.23;4.30;;;;;;;;;;5014887;28;20410;-74
2024/04/07 16:16:37;;;;;;;20.97;4.10;;;;;;;;;;5014777;28;20529;-74
2024/04/07 16:19:03;;;;;;;14.43;4.30;;;;;;;;;;5013148;28;20462;-73
2024/04/07 16:21:29;;;;;;;21.60;3.70;;;;;;;;;;5015076;28;20410;-75
2024/04/07 16:23:55;;;;;;;16.70;3.80;;;;;;;;;;5031609;28;20421;-75
2024/04/07 16:26:21;;;;;;;13.67;3.70;;;;;;;;;;5034011;28;20421;-74
2024/04/07 16:28:49;;;;;;;19.90;3.97;;;;;;;;;;5034587;28;20416;-74
2024/04/07 16:31:15;;;;;;;11.67;3.90;;;;;;;;;;5034860;28;20509;-74
2024/04/07 16:33:41;;;;;;;12.17;3.80;;;;;;;;;;5034659;28;20412;-74
2024/04/07 16:36:07;;;;;;;16.60;3.97;;;;;;;;;;5033549;28;20424;-74
2024/04/07 16:38:33;;;;;;;10.57;3.57;;;;;;;;;;5033811;28;20503;-75
2024/04/07 16:40:59;;;;;;;16.13;4.00;;;;;;;;;;5033935;28;20471;-74
2024/04/07 16:43:28;;;;;;;11.73;4.27;;;;;;;;;;5033907;28;20530;-75
2024/04/07 16:45:54;;;;;;;26.73;4.73;;;;;;;;;;5033684;28;20455;-74
2024/04/07 16:48:21;;;;;;;23.97;4.20;;;;;;;;;;5025663;28;20493;-74
2024/04/07 16:50:55;;;;;;;15.33;3.60;;;;;;;;;;5013987;28;20414;-75
2024/04/07 16:53:21;;;;;;;9.07;4.10;;;;;;;;;;5014108;28;20410;-75
2024/04/07 16:55:47;;;;;;;17.97;4.57;;;;;;;;;;5013793;28;20440;-75
2024/04/07 16:58:13;;;;;;;18.03;4.60;;;;;;;;;;5013866;28;20823;-75
2024/04/07 17:00:39;;;;;;;11.67;3.97;;;;;;;;;;5013803;28;20406;-75
2024/04/07 17:03:05;;;;;;;20.50;5.10;;;;;;;;;;5013759;28;20421;-73
2024/04/07 17:05:31;;;;;;;14.10;3.80;;;;;;;;;;5012031;28;20434;-74
2024/04/07 17:07:57;;;;;;;18.40;4.40;;;;;;;;;;5013850;28;20461;-73
2024/04/07 17:10:23;;;;;;;26.70;5.40;;;;;;;;;;5013887;28;20418;-75
2024/04/07 17:12:48;;;;;;;16.13;4.33;;;;;;;;;;5013663;28;20488;-76
2024/04/07 17:15:15;;;;;;;15.03;5.40;;;;;;;;;;5013195;28;20528;-75
2024/04/07 17:17:41;;;;;;;17.47;4.63;;;;;;;;;;5016921;28;20457;-75
2024/04/07 17:20:07;;;;;;;14.10;4.10;;;;;;;;;;5028106;28;20425;-75
2024/04/07 17:22:35;;;;;;;13.20;4.10;;;;;;;;;;5032016;28;20418;-75
2024/04/07 17:25:02;;;;;;;19.80;5.00;;;;;;;;;;5030273;28;20422;-76
2024/04/07 17:27:28;;;;;;;13.57;4.93;;;;;;;;;;5026824;28;20417;-73
2024/04/07 17:29:54;;;;;;;16.43;4.20;;;;;;;;;;5021199;28;20406;-74
2024/04/07 17:32:20;;;;;;;24.43;5.23;;;;;;;;;;5017719;28;20417;-74
2024/04/07 17:34:47;;;;;;;17.60;4.80;;;;;;;;;;5015428;28;20422;-73
2024/04/07 17:37:13;;;;;;;19.60;5.10;;;;;;;;;;5002219;28;20418;-74
2024/04/07 17:39:39;;;;;;;15.10;4.50;;;;;;;;;;5016304;28;20466;-75
2024/04/07 17:42:05;;;;;;;17.33;5.20;;;;;;;;;;5016566;28;20410;-74
2024/04/07 17:44:31;;;;;;;14.73;4.57;;;;;;;;;;5016731;28;20481;-75
2024/04/07 17:46:57;;;;;;;13.13;5.63;;;;;;;;;;5016301;28;20837;-74
2024/04/07 17:49:23;;;;;;;19.57;5.30;;;;;;;;;;5014154;28;20418;-73
2024/04/07 17:51:49;;;;;;;9.57;4.13;;;;;;;;;;5015765;28;20414;-74
2024/04/07 17:54:15;;;;;;;17.00;4.97;;;;;;;;;;5016310;28;20746;-73
2024/04/07 17:56:43;;;;;;;25.17;6.10;;;;;;;;;;5015717;28;20434;-76
2024/04/07 17:59:09;;;;;;;20.50;6.40;;;;;;;;;;5016534;28;20496;-74
2024/04/07 18:01:35;;;;;;;17.97;5.87;;;;;;;;;;5014254;28;20429;-74
2024/04/07 18:04:01;;;;;;;17.00;5.70;;;;;;;;;;5016236;28;20851;-75
2024/04/07 18:06:28;;;;;;;26.63;5.80;;;;;;;;;;5020703;28;20433;-75
2024/04/07 18:08:56;;;;;;;15.73;5.37;;;;;;;;;;5019307;28;20767;-72
2024/04/07 18:11:22;;;;;;;22.87;5.77;;;;;;;;;;5021796;28;20744;-74
2024/04/07 18:13:49;;;;;;;18.63;6.70;;;;;;;;;;5034474;28;20431;-75
2024/04/07 18:16:17;;;;;;;20.43;6.57;;;;;;;;;;5032676;28;20454;-74
2024/04/07 18:18:43;;;;;;;16.83;5.53;;;;;;;;;;5022345;28;20556;-73
2024/04/07 18:21:09;;;;;;;12.97;5.20;;;;;;;;;;5014224;28;20525;-74
2024/04/07 18:23:38;;;;;;;15.00;5.40;;;;;;;;;;5016512;28;20933;-74
2024/04/07 18:26:06;;;;;;;15.13;5.80;;;;;;;;;;5034110;28;20428;-75
2024/04/07 18:28:32;;;;;;;17.80;5.80;;;;;;;;;;5034212;28;20485;-74
2024/04/07 18:30:59;;;;;;;14.30;5.53;;;;;;;;;;5034463;28;20448;-74
2024/04/07 18:33:25;;;;;;;17.03;7.33;;;;;;;;;;5031400;28;20435;-74
2024/04/07 18:35:51;;;;;;;21.43;6.83;;;;;;;;;;5033219;28;20436;-74
2024/04/07 18:38:17;;;;;;;20.47;6.50;;;;;;;;;;5033334;28;20452;-74
2024/04/07 18:40:43;;;;;;;16.33;6.40;;;;;;;;;;5025632;28;20784;-74
2024/04/07 18:43:09;;;;;;;13.97;5.93;;;;;;;;;;5013645;28;20935;-75
2024/04/07 18:45:36;;;;;;;12.70;5.37;;;;;;;;;;5032594;28;20540;-76
2024/04/07 18:48:04;;;;;;;16.63;5.37;;;;;;;;;;5033145;28;20417;-75
2024/04/07 18:50:30;;;;;;;16.60;5.20;;;;;;;;;;5032938;28;20504;-73
2024/04/07 18:52:56;;;;;;;13.00;5.53;;;;;;;;;;5031253;28;20471;-75
2024/04/07 18:55:22;;;;;;;16.37;5.10;;;;;;;;;;5033192;28;20433;-74
2024/04/07 18:57:48;;;;;;;21.83;6.30;;;;;;;;;;5032434;28;20842;-75
2024/04/07 19:00:14;;;;;;;12.13;5.63;;;;;;;;;;5033388;28;20413;-75
2024/04/07 19:02:44;;;;;;;18.13;5.07;;;;;;;;;;5033721;28;20900;-75
2024/04/07 19:05:11;;;;;;;17.00;5.07;;;;;;;;;;5013876;28;20937;-74
2024/04/07 19:07:37;;;;;;;12.07;5.47;;;;;;;;;;5014095;28;20907;-75
2024/04/07 19:10:03;;;;;;;21.20;6.57;;;;;;;;;;5013186;28;20429;-75
2024/04/07 19:12:31;;;;;;;17.67;6.10;;;;;;;;;;5014066;28;20492;-75
2024/04/07 19:14:58;;;;;;;19.47;5.83;;;;;;;;;;5017584;28;20422;-74
2024/04/07 19:17:24;;;;;;;16.80;6.23;;;;;;;;;;5014088;28;20453;-74
2024/04/07 19:19:49;;;;;;;21.63;6.83;;;;;;;;;;5012242;28;20996;-74
2024/04/07 19:22:16;;;;;;;16.40;6.80;;;;;;;;;;5014114;28;20452;-74
2024/04/07 19:24:42;;;;;;;22.43;7.53;;;;;;;;;;5013917;28;20918;-74
2024/04/07 19:27:08;;;;;;;15.60;5.33;;;;;;;;;;5018606;28;20422;-74
2024/04/07 19:29:34;;;;;;;14.80;5.60;;;;;;;;;;5014736;28;20944;-74
2024/04/07 19:32:00;;;;;;;15.57;5.70;;;;;;;;;;5013921;28;20425;-75